Aero Club Salland


Codes: EHDS/
Name: Aero Club Salland
City: Lemelerveld
Country: Netherlands
Elevation: 10 ft.
Website:
Wikipedia:

Photos at Aero Club Salland


   Photos courtesy of SpottingLog. You can add your own sightings and photos by signing up for a free trial today.



No photos found.

Weather at Aero Club Salland


Time (UTC)DescriptionTempratureWindCloud coverageVisibilityPressureHumidity
15-Apr-2024 18:00Light Rain7°C18 mph, W95%10000m997hPa62%
15-Apr-2024 21:00Light Rain7°C20 mph, W87%10000m998hPa74%
16-Apr-2024 00:00Light Rain6°C20 mph, W90%10000m999hPa84%
16-Apr-2024 03:00Light Rain5°C16 mph, SW100%10000m997hPa92%
16-Apr-2024 06:00Light Rain6°C11 mph, SW100%10000m996hPa92%
16-Apr-2024 09:00Light Rain8°C7 mph, NW100%10000m998hPa83%
16-Apr-2024 12:00Overcast Clouds11°C16 mph, N100%10000m1001hPa67%
16-Apr-2024 15:00Light Rain10°C16 mph, N94%10000m1005hPa61%
16-Apr-2024 18:00Broken Clouds8°C11 mph, NW82%10000m1007hPa76%
16-Apr-2024 21:00Overcast Clouds5°C7 mph, NW99%10000m1010hPa91%
17-Apr-2024 00:00Overcast Clouds3°C7 mph, NW92%10000m1011hPa90%
17-Apr-2024 03:00Overcast Clouds3°C7 mph, NW97%10000m1011hPa87%
17-Apr-2024 06:00Overcast Clouds5°C4 mph, NW98%10000m1012hPa82%
17-Apr-2024 09:00Light Rain8°C7 mph, NW100%10000m1012hPa73%
17-Apr-2024 12:00Light Rain9°C7 mph, NW100%10000m1013hPa69%
17-Apr-2024 15:00Light Rain9°C9 mph, N100%10000m1013hPa70%
17-Apr-2024 18:00Light Rain7°C9 mph, N100%10000m1014hPa83%
17-Apr-2024 21:00Broken Clouds4°C7 mph, N82%10000m1015hPa95%
18-Apr-2024 00:00Broken Clouds3°C7 mph, N53%10000m1016hPa92%
18-Apr-2024 03:00Clear Sky3°C4 mph, N8%10000m1017hPa93%
18-Apr-2024 06:00Clear Sky4°C4 mph, NW7%10000m1019hPa90%
18-Apr-2024 09:00Light Rain9°C11 mph, N10%10000m1020hPa72%
18-Apr-2024 12:00Light Rain10°C13 mph, NW39%10000m1020hPa59%
18-Apr-2024 15:00Broken Clouds11°C13 mph, NW51%10000m1020hPa52%
18-Apr-2024 18:00Scattered Clouds7°C11 mph, NW34%10000m1021hPa71%
18-Apr-2024 21:00Overcast Clouds4°C7 mph, W100%10000m1021hPa81%
19-Apr-2024 00:00Overcast Clouds4°C9 mph, SW100%10000m1019hPa81%
19-Apr-2024 03:00Overcast Clouds6°C13 mph, SW100%10000m1016hPa74%
19-Apr-2024 06:00Light Rain7°C16 mph, W100%9195m1013hPa93%
19-Apr-2024 09:00Light Rain9°C13 mph, NW100%10000m1011hPa92%
19-Apr-2024 12:00Light Rain10°C20 mph, NW87%10000m1012hPa70%
19-Apr-2024 15:00Light Rain10°C22 mph, NW74%10000m1013hPa67%
19-Apr-2024 18:00Broken Clouds7°C22 mph, NW74%10000m1016hPa57%
19-Apr-2024 21:00Overcast Clouds6°C18 mph, NW100%10000m1018hPa62%
20-Apr-2024 00:00Broken Clouds5°C16 mph, NW76%10000m1019hPa63%
20-Apr-2024 03:00Overcast Clouds4°C11 mph, NW99%10000m1020hPa70%
20-Apr-2024 06:00Overcast Clouds6°C9 mph, NW100%10000m1021hPa73%
20-Apr-2024 09:00Overcast Clouds8°C11 mph, NW100%10000m1022hPa62%
20-Apr-2024 12:00Overcast Clouds10°C13 mph, NW100%10000m1023hPa67%
20-Apr-2024 15:00Overcast Clouds9°C13 mph, W100%10000m1022hPa79%